Time;durP1;ratioP1;P1;durP2;ratioP2;P2;SDS_P1;SDS_P2;PMS_P1;PMS_P2;Temp;Humidity;BMP_temperature;BMP_pressure;BME280_temperature;BME280_humidity;BME280_pressure;Samples;Min_cycle;Max_cycle;Signal;HPM_P1;HPM_P2
2024/03/12 00:01:19;;;;;;;4.47;2.85;;;;;;;;;;4980359;28;20059;-81
2024/03/12 00:03:46;;;;;;;3.83;3.03;;;;;;;;;;4966272;28;20053;-81
2024/03/12 00:06:13;;;;;;;6.45;3.40;;;;;;;;;;4977993;28;20497;-85
2024/03/12 00:08:40;;;;;;;4.22;3.03;;;;;;;;;;4961685;28;20054;-83
2024/03/12 00:11:07;;;;;;;4.03;3.10;;;;;;;;;;4980760;28;20134;-82
2024/03/12 00:13:35;;;;;;;3.10;2.55;;;;;;;;;;4966631;28;20055;-82
2024/03/12 00:16:02;;;;;;;5.28;2.67;;;;;;;;;;4966746;28;20066;-82
2024/03/12 00:18:32;;;;;;;4.90;2.45;;;;;;;;;;4967334;28;20062;-82
2024/03/12 00:21:03;;;;;;;4.72;2.40;;;;;;;;;;4971445;28;20054;-86
2024/03/12 00:23:30;;;;;;;3.72;2.30;;;;;;;;;;4972592;28;20066;-86
2024/03/12 00:25:56;;;;;;;3.47;2.25;;;;;;;;;;4968781;28;20055;-85
2024/03/12 00:28:23;;;;;;;2.70;2.05;;;;;;;;;;4970952;28;20062;-84
2024/03/12 00:30:50;;;;;;;3.40;1.73;;;;;;;;;;4988564;28;20114;-85
2024/03/12 00:33:16;;;;;;;6.38;2.40;;;;;;;;;;5003169;28;20093;-84
2024/03/12 00:35:46;;;;;;;2.78;1.73;;;;;;;;;;4972193;28;20062;-84
2024/03/12 00:38:12;;;;;;;2.45;1.75;;;;;;;;;;4976484;28;20568;-85
2024/03/12 00:40:42;;;;;;;2.55;1.77;;;;;;;;;;4957260;28;20468;-85
2024/03/12 00:43:09;;;;;;;3.65;2.40;;;;;;;;;;4965439;28;20468;-85
2024/03/12 00:45:39;;;;;;;2.45;1.70;;;;;;;;;;4959681;28;20082;-85
2024/03/12 00:48:07;;;;;;;3.70;2.00;;;;;;;;;;4961722;28;20069;-87
2024/03/12 00:50:34;;;;;;;3.97;1.90;;;;;;;;;;4968035;28;20083;-83
2024/03/12 00:53:02;;;;;;;2.53;1.70;;;;;;;;;;4996129;28;20081;-85
2024/03/12 00:55:29;;;;;;;4.72;2.00;;;;;;;;;;4980249;28;20054;-84
2024/03/12 00:57:56;;;;;;;3.13;1.90;;;;;;;;;;4980215;28;20038;-85
2024/03/12 01:00:25;;;;;;;4.78;2.40;;;;;;;;;;4975449;28;20146;-84
2024/03/12 01:02:58;;;;;;;4.07;2.55;;;;;;;;;;4970575;28;20069;-84
2024/03/12 01:05:25;;;;;;;3.22;2.10;;;;;;;;;;4964348;28;20138;-83
2024/03/12 01:07:53;;;;;;;3.33;2.17;;;;;;;;;;4982099;28;20133;-83
2024/03/12 01:10:23;;;;;;;2.90;2.15;;;;;;;;;;5002421;28;20101;-84
2024/03/12 01:12:49;;;;;;;2.13;1.92;;;;;;;;;;4975282;28;20509;-84
2024/03/12 01:15:18;;;;;;;5.10;2.28;;;;;;;;;;4975262;28;20090;-84
2024/03/12 01:17:45;;;;;;;3.80;1.90;;;;;;;;;;4979660;28;20106;-80
2024/03/12 01:20:16;;;;;;;4.18;2.58;;;;;;;;;;4964478;28;20058;-80
2024/03/12 01:22:43;;;;;;;3.95;2.10;;;;;;;;;;4964138;28;20051;-80
2024/03/12 01:25:10;;;;;;;3.92;2.22;;;;;;;;;;4964645;28;20171;-82
2024/03/12 01:27:37;;;;;;;3.60;2.25;;;;;;;;;;4963160;28;20054;-80
2024/03/12 01:30:06;;;;;;;4.25;1.95;;;;;;;;;;4962550;28;20046;-80
2024/03/12 01:32:36;;;;;;;4.10;2.08;;;;;;;;;;4972292;28;20101;-80
2024/03/12 01:35:09;;;;;;;2.88;2.22;;;;;;;;;;4978417;28;20051;-80
2024/03/12 01:37:36;;;;;;;3.70;2.25;;;;;;;;;;4962525;28;20050;-80
2024/03/12 01:40:19;;;;;;;4.90;1.98;;;;;;;;;;4976331;28;20050;-80
2024/03/12 01:42:48;;;;;;;3.03;2.15;;;;;;;;;;4956949;28;20081;-80
2024/03/12 01:45:16;;;;;;;3.10;1.88;;;;;;;;;;4976649;28;20073;-79
2024/03/12 01:47:45;;;;;;;3.53;2.33;;;;;;;;;;4958260;28;20126;-86
2024/03/12 01:50:12;;;;;;;2.55;2.30;;;;;;;;;;4955906;28;20125;-86
2024/03/12 01:52:39;;;;;;;3.50;2.00;;;;;;;;;;4947462;28;20454;-86
2024/03/12 01:55:06;;;;;;;3.13;2.28;;;;;;;;;;4989001;28;20425;-81
2024/03/12 01:57:33;;;;;;;2.70;2.10;;;;;;;;;;4975874;28;20155;-81
2024/03/12 02:00:00;;;;;;;2.42;1.95;;;;;;;;;;4959311;28;20505;-81
2024/03/12 02:02:27;;;;;;;4.43;2.20;;;;;;;;;;4959915;28;20055;-81
2024/03/12 02:04:54;;;;;;;2.70;1.98;;;;;;;;;;4962209;28;20710;-81
2024/03/12 02:07:34;;;;;;;3.80;2.20;;;;;;;;;;4918475;29;20052;-81
2024/03/12 02:10:01;;;;;;;2.65;2.08;;;;;;;;;;4915632;29;20138;-85
2024/03/12 02:12:27;;;;;;;4.10;2.10;;;;;;;;;;4910574;29;20055;-87
2024/03/12 02:14:54;;;;;;;3.00;1.85;;;;;;;;;;4915723;29;20055;-87
2024/03/12 02:17:21;;;;;;;2.55;2.22;;;;;;;;;;4917383;29;20063;-84
2024/03/12 02:19:48;;;;;;;2.95;2.00;;;;;;;;;;4916219;29;20091;-84
2024/03/12 02:22:15;;;;;;;2.70;1.95;;;;;;;;;;4920939;29;20103;-84
2024/03/12 02:24:41;;;;;;;3.58;2.35;;;;;;;;;;4921673;29;20067;-84
2024/03/12 02:27:09;;;;;;;2.60;2.00;;;;;;;;;;4921875;29;20051;-85
2024/03/12 02:29:36;;;;;;;3.40;2.50;;;;;;;;;;4908881;29;20086;-85
2024/03/12 02:32:03;;;;;;;2.95;2.60;;;;;;;;;;4931210;29;20082;-86
2024/03/12 02:34:29;;;;;;;3.72;2.13;;;;;;;;;;4915373;29;20052;-86
2024/03/12 02:36:56;;;;;;;3.00;2.55;;;;;;;;;;4917770;29;20059;-84
2024/03/12 02:39:23;;;;;;;2.97;2.25;;;;;;;;;;4976739;28;20129;-87
2024/03/12 02:41:49;;;;;;;2.58;1.95;;;;;;;;;;4974489;28;20054;-87
2024/03/12 02:44:17;;;;;;;3.42;2.15;;;;;;;;;;4993669;28;20085;-85
2024/03/12 02:46:44;;;;;;;4.68;2.53;;;;;;;;;;4996882;28;20512;-85
2024/03/12 02:49:13;;;;;;;4.10;2.30;;;;;;;;;;4988142;28;20141;-85
2024/03/12 02:51:40;;;;;;;3.90;1.88;;;;;;;;;;4989019;28;20058;-85
2024/03/12 02:54:07;;;;;;;5.13;3.08;;;;;;;;;;4996439;28;20500;-85
2024/03/12 02:56:34;;;;;;;2.92;1.98;;;;;;;;;;4996457;28;20143;-85
2024/03/12 02:59:00;;;;;;;2.42;2.08;;;;;;;;;;4987472;28;20094;-88
2024/03/12 03:01:27;;;;;;;2.53;2.10;;;;;;;;;;4993901;28;20054;-87
2024/03/12 03:03:54;;;;;;;2.22;1.70;;;;;;;;;;4993911;28;20424;-86
2024/03/12 03:06:24;;;;;;;2.78;1.98;;;;;;;;;;4994124;28;20134;-86
2024/03/12 03:08:51;;;;;;;3.00;2.13;;;;;;;;;;4987783;28;20106;-86
2024/03/12 03:11:17;;;;;;;5.13;2.17;;;;;;;;;;4993758;28;20050;-86
2024/03/12 03:13:44;;;;;;;5.10;2.72;;;;;;;;;;4993865;28;20094;-86
2024/03/12 03:16:11;;;;;;;4.65;2.10;;;;;;;;;;4994705;28;20145;-86
2024/03/12 03:18:37;;;;;;;3.67;2.00;;;;;;;;;;4990433;28;20133;-86
2024/03/12 03:21:04;;;;;;;3.15;2.17;;;;;;;;;;4990609;28;20089;-88
2024/03/12 03:23:31;;;;;;;2.88;1.92;;;;;;;;;;4994328;28;20057;-88
2024/03/12 03:25:58;;;;;;;3.58;2.25;;;;;;;;;;4997723;28;20133;-88
2024/03/12 03:28:24;;;;;;;4.45;2.90;;;;;;;;;;4987273;28;20066;-91
2024/03/12 03:30:53;;;;;;;3.72;2.00;;;;;;;;;;4976607;28;20416;-89
2024/03/12 03:33:22;;;;;;;2.95;2.45;;;;;;;;;;4986427;28;20062;-88
2024/03/12 03:35:51;;;;;;;3.88;2.22;;;;;;;;;;4993725;28;20058;-89
2024/03/12 03:38:20;;;;;;;3.03;2.17;;;;;;;;;;4993705;28;20047;-86
2024/03/12 03:40:47;;;;;;;4.55;2.38;;;;;;;;;;4991312;28;20085;-87
2024/03/12 03:43:14;;;;;;;3.95;2.35;;;;;;;;;;4993576;28;20054;-87
2024/03/12 03:45:40;;;;;;;4.72;2.47;;;;;;;;;;4993333;28;20054;-86
2024/03/12 03:48:07;;;;;;;3.10;2.50;;;;;;;;;;4993444;28;20077;-87
2024/03/12 03:50:35;;;;;;;3.33;2.22;;;;;;;;;;4990616;28;20465;-87
2024/03/12 03:53:02;;;;;;;4.40;2.10;;;;;;;;;;4993072;28;20093;-86
2024/03/12 03:55:28;;;;;;;3.55;2.03;;;;;;;;;;4992833;28;20060;-85
2024/03/12 03:57:55;;;;;;;2.75;2.13;;;;;;;;;;4992977;28;20497;-87
2024/03/12 04:00:28;;;;;;;2.55;2.08;;;;;;;;;;4989370;28;20050;-85
2024/03/12 04:02:56;;;;;;;3.65;2.30;;;;;;;;;;4993519;28;20431;-85
2024/03/12 04:05:23;;;;;;;4.55;2.30;;;;;;;;;;4993769;28;20231;-86
2024/03/12 04:07:49;;;;;;;3.22;2.10;;;;;;;;;;4977905;28;20055;-85
2024/03/12 04:10:16;;;;;;;4.65;2.22;;;;;;;;;;4973655;28;20062;-85
2024/03/12 04:12:46;;;;;;;4.35;1.83;;;;;;;;;;4958198;28;20062;-85
2024/03/12 04:15:13;;;;;;;2.15;1.77;;;;;;;;;;4958269;28;20485;-85
2024/03/12 04:17:43;;;;;;;4.80;2.22;;;;;;;;;;4957863;28;20098;-85
2024/03/12 04:20:11;;;;;;;3.28;2.17;;;;;;;;;;4972303;28;20055;-85
2024/03/12 04:22:38;;;;;;;3.15;2.38;;;;;;;;;;4957899;28;20575;-86
2024/03/12 04:25:05;;;;;;;2.78;2.15;;;;;;;;;;4989643;28;20073;-83
2024/03/12 04:27:32;;;;;;;3.22;2.30;;;;;;;;;;4966675;28;20424;-83
2024/03/12 04:29:59;;;;;;;4.57;2.53;;;;;;;;;;4965296;28;20060;-83
2024/03/12 04:32:27;;;;;;;3.10;2.17;;;;;;;;;;4981140;28;20086;-83
2024/03/12 04:34:55;;;;;;;3.50;2.60;;;;;;;;;;4980866;28;20062;-83
2024/03/12 04:37:22;;;;;;;4.75;1.90;;;;;;;;;;4981570;28;20050;-83
2024/03/12 04:39:48;;;;;;;3.65;2.38;;;;;;;;;;4963651;28;20527;-83
2024/03/12 04:42:15;;;;;;;2.13;1.90;;;;;;;;;;4964376;28;20054;-83
2024/03/12 04:44:42;;;;;;;6.25;2.13;;;;;;;;;;4981178;28;20085;-83
2024/03/12 04:47:09;;;;;;;3.50;2.55;;;;;;;;;;4964836;28;20113;-83
2024/03/12 04:49:39;;;;;;;3.50;2.35;;;;;;;;;;4978497;28;20086;-79
2024/03/12 04:52:06;;;;;;;4.05;2.50;;;;;;;;;;4980198;28;20496;-79
2024/03/12 04:54:32;;;;;;;3.35;2.30;;;;;;;;;;4962697;28;20047;-80
2024/03/12 04:56:59;;;;;;;3.05;2.35;;;;;;;;;;4995946;28;20059;-82
2024/03/12 04:59:27;;;;;;;3.35;2.45;;;;;;;;;;4963816;28;20081;-81
2024/03/12 05:01:53;;;;;;;3.20;2.35;;;;;;;;;;4979771;28;20074;-82
2024/03/12 05:04:22;;;;;;;3.58;2.42;;;;;;;;;;4978063;28;20101;-83
2024/03/12 05:06:49;;;;;;;5.40;2.60;;;;;;;;;;4962403;28;20063;-81
2024/03/12 05:09:19;;;;;;;3.65;2.63;;;;;;;;;;4969184;28;20065;-81
2024/03/12 05:11:46;;;;;;;3.33;2.00;;;;;;;;;;4985424;28;20050;-82
2024/03/12 05:14:12;;;;;;;2.55;1.90;;;;;;;;;;4957720;28;20059;-82
2024/03/12 05:16:39;;;;;;;2.83;2.28;;;;;;;;;;4982115;28;20062;-82
2024/03/12 05:19:10;;;;;;;3.65;2.40;;;;;;;;;;4977186;28;20047;-81
2024/03/12 05:21:37;;;;;;;5.38;2.70;;;;;;;;;;4977979;28;20054;-82
2024/03/12 05:24:04;;;;;;;5.53;2.70;;;;;;;;;;4965071;28;20591;-84
2024/03/12 05:26:32;;;;;;;5.78;2.60;;;;;;;;;;4960592;28;20402;-83
2024/03/12 05:28:59;;;;;;;3.97;2.83;;;;;;;;;;4983119;28;20055;-83
2024/03/12 05:31:38;;;;;;;5.85;3.05;;;;;;;;;;4974983;28;20065;-84
2024/03/12 05:34:16;;;;;;;2.78;2.47;;;;;;;;;;4968463;28;20054;-84
2024/03/12 05:36:48;;;;;;;4.38;2.88;;;;;;;;;;4977310;28;20163;-84
2024/03/12 05:39:37;;;;;;;4.80;3.13;;;;;;;;;;4975351;28;20078;-84
2024/03/12 05:50:21;;;;;;;4.07;3.35;;;;;;;;;;4974701;28;20066;-84
2024/03/12 05:52:48;;;;;;;7.05;3.38;;;;;;;;;;4985054;28;20078;-83
2024/03/12 05:55:15;;;;;;;4.88;3.13;;;;;;;;;;4975657;28;20054;-83
2024/03/12 05:57:45;;;;;;;3.25;2.88;;;;;;;;;;4958975;28;20050;-79
2024/03/12 06:00:12;;;;;;;3.97;2.90;;;;;;;;;;4985085;28;20054;-81
2024/03/12 06:02:38;;;;;;;4.13;2.83;;;;;;;;;;4981085;28;20047;-78
2024/03/12 06:05:06;;;;;;;4.68;3.25;;;;;;;;;;4965071;28;20049;-79
2024/03/12 06:07:33;;;;;;;3.10;2.63;;;;;;;;;;4963424;28;20055;-79
2024/03/12 06:09:59;;;;;;;3.13;2.83;;;;;;;;;;4965077;28;20515;-80
2024/03/12 06:12:26;;;;;;;4.93;3.20;;;;;;;;;;4990018;28;20052;-80
2024/03/12 06:14:53;;;;;;;5.05;3.30;;;;;;;;;;4973986;28;20054;-80
2024/03/12 06:17:20;;;;;;;7.13;2.60;;;;;;;;;;4972169;28;20142;-81
2024/03/12 06:19:46;;;;;;;4.32;2.80;;;;;;;;;;4976294;28;20488;-80
2024/03/12 06:22:13;;;;;;;3.40;2.35;;;;;;;;;;4975744;28;20050;-79
2024/03/12 06:24:39;;;;;;;2.60;2.20;;;;;;;;;;4973243;28;20066;-79
2024/03/12 06:27:07;;;;;;;4.32;2.40;;;;;;;;;;4982813;28;20094;-79
2024/03/12 06:29:34;;;;;;;2.75;2.15;;;;;;;;;;4959363;28;20149;-80
2024/03/12 06:32:01;;;;;;;8.50;2.50;;;;;;;;;;4960204;28;20091;-80
2024/03/12 06:34:28;;;;;;;4.50;2.90;;;;;;;;;;4977260;28;20069;-79
2024/03/12 06:36:58;;;;;;;4.32;2.17;;;;;;;;;;4977539;28;20066;-80
2024/03/12 06:39:31;;;;;;;2.83;1.98;;;;;;;;;;4977715;28;20059;-80
2024/03/12 06:41:59;;;;;;;3.00;2.20;;;;;;;;;;4988124;28;20097;-80
2024/03/12 06:44:28;;;;;;;4.15;2.40;;;;;;;;;;4967601;28;20054;-77
2024/03/12 06:46:55;;;;;;;3.80;2.38;;;;;;;;;;4962403;28;20109;-79
2024/03/12 06:49:22;;;;;;;3.35;2.55;;;;;;;;;;4975030;28;20137;-79
2024/03/12 06:51:49;;;;;;;2.70;2.00;;;;;;;;;;4973556;28;20223;-80
2024/03/12 06:54:15;;;;;;;2.22;2.00;;;;;;;;;;4962427;28;20058;-80
2024/03/12 06:56:43;;;;;;;3.10;2.17;;;;;;;;;;4962273;28;20410;-80
2024/03/12 06:59:10;;;;;;;4.03;1.92;;;;;;;;;;4961129;28;20564;-80
2024/03/12 07:01:40;;;;;;;4.88;2.30;;;;;;;;;;4961841;28;20055;-80
2024/03/12 07:04:08;;;;;;;2.45;2.20;;;;;;;;;;4962125;28;20054;-80
2024/03/12 07:06:34;;;;;;;3.97;2.47;;;;;;;;;;4963274;28;20051;-78
2024/03/12 07:09:04;;;;;;;3.58;2.78;;;;;;;;;;4971311;28;20508;-80
2024/03/12 07:11:34;;;;;;;2.63;2.17;;;;;;;;;;4960247;28;20130;-80
2024/03/12 07:14:12;;;;;;;2.85;2.38;;;;;;;;;;4962221;28;20079;-82
2024/03/12 07:16:41;;;;;;;3.28;2.65;;;;;;;;;;4978633;28;20047;-79
2024/03/12 07:19:10;;;;;;;4.18;2.20;;;;;;;;;;4965629;28;20054;-80
2024/03/12 07:21:38;;;;;;;3.10;2.50;;;;;;;;;;4982297;28;20468;-83
2024/03/12 07:24:07;;;;;;;3.30;2.08;;;;;;;;;;4962316;28;20516;-79
2024/03/12 07:26:34;;;;;;;3.75;1.95;;;;;;;;;;4977757;28;20107;-81
2024/03/12 07:29:06;;;;;;;3.88;2.22;;;;;;;;;;4964114;28;20050;-80
2024/03/12 07:31:33;;;;;;;2.50;2.22;;;;;;;;;;4972399;28;20086;-80
2024/03/12 07:34:00;;;;;;;3.25;2.40;;;;;;;;;;4987275;28;20078;-80
2024/03/12 07:36:30;;;;;;;5.22;2.22;;;;;;;;;;4971232;28;20086;-81
2024/03/12 07:38:56;;;;;;;4.97;2.55;;;;;;;;;;4986610;28;20051;-81
2024/03/12 07:41:23;;;;;;;3.97;2.33;;;;;;;;;;4985228;28;20081;-81
2024/03/12 07:43:50;;;;;;;3.33;2.70;;;;;;;;;;4977552;28;20493;-80
2024/03/12 07:46:19;;;;;;;3.13;2.55;;;;;;;;;;4967878;28;20417;-77
2024/03/12 07:48:47;;;;;;;5.03;2.17;;;;;;;;;;4979246;28;20121;-77
2024/03/12 07:51:14;;;;;;;4.20;2.50;;;;;;;;;;4980037;28;20426;-77
2024/03/12 07:53:41;;;;;;;2.58;2.38;;;;;;;;;;4979525;28;20063;-80
2024/03/12 07:56:09;;;;;;;4.00;2.35;;;;;;;;;;4977705;28;20067;-80
2024/03/12 07:58:36;;;;;;;4.47;2.25;;;;;;;;;;4979444;28;20058;-80
2024/03/12 08:01:03;;;;;;;3.78;2.20;;;;;;;;;;4980150;28;20046;-81
2024/03/12 08:03:31;;;;;;;2.28;1.80;;;;;;;;;;4964983;28;20050;-79
2024/03/12 08:05:58;;;;;;;4.28;2.10;;;;;;;;;;4994703;28;20039;-82
2024/03/12 08:08:25;;;;;;;3.28;2.00;;;;;;;;;;4982341;28;20057;-81
2024/03/12 08:10:54;;;;;;;7.10;3.45;;;;;;;;;;4980469;28;20059;-80
2024/03/12 08:13:21;;;;;;;11.82;2.83;;;;;;;;;;4977934;28;20055;-83
2024/03/12 08:15:48;;;;;;;1.73;1.63;;;;;;;;;;4979093;28;20069;-80
2024/03/12 08:18:14;;;;;;;4.57;1.73;;;;;;;;;;4977828;28;20066;-81
2024/03/12 08:20:47;;;;;;;2.20;1.65;;;;;;;;;;4962158;28;20505;-77
2024/03/12 08:23:14;;;;;;;2.28;1.40;;;;;;;;;;4975929;28;20085;-77
2024/03/12 08:25:41;;;;;;;2.15;1.80;;;;;;;;;;4986149;28;20055;-81
2024/03/12 08:28:22;;;;;;;1.88;1.10;;;;;;;;;;4980036;28;20051;-83
2024/03/12 08:30:48;;;;;;;2.80;1.48;;;;;;;;;;4982282;28;20501;-82
2024/03/12 08:33:17;;;;;;;2.83;1.45;;;;;;;;;;4981033;28;20093;-79
2024/03/12 08:35:44;;;;;;;1.58;1.17;;;;;;;;;;4981048;28;20055;-80
2024/03/12 08:38:10;;;;;;;1.30;1.02;;;;;;;;;;4961233;28;20481;-80
2024/03/12 08:40:37;;;;;;;1.27;1.13;;;;;;;;;;4975863;28;20129;-84
2024/03/12 08:43:04;;;;;;;1.20;0.88;;;;;;;;;;4975361;28;20110;-84
2024/03/12 08:45:35;;;;;;;1.40;1.10;;;;;;;;;;4972091;28;20828;-81
2024/03/12 08:48:03;;;;;;;1.52;0.88;;;;;;;;;;4977742;28;20042;-82
2024/03/12 08:50:30;;;;;;;1.52;1.38;;;;;;;;;;4972327;28;20054;-76
2024/03/12 08:52:57;;;;;;;1.42;1.02;;;;;;;;;;4972088;28;20102;-77
2024/03/12 08:55:24;;;;;;;2.17;0.95;;;;;;;;;;4970894;28;20073;-78
2024/03/12 08:57:51;;;;;;;1.00;0.80;;;;;;;;;;4972111;28;20043;-76
2024/03/12 09:00:18;;;;;;;1.50;1.00;;;;;;;;;;4977793;28;20062;-84
2024/03/12 09:02:45;;;;;;;1.67;1.35;;;;;;;;;;4957444;28;20062;-79
2024/03/12 09:05:12;;;;;;;0.95;0.68;;;;;;;;;;4960667;28;20450;-79
2024/03/12 09:07:38;;;;;;;1.13;0.73;;;;;;;;;;4970871;28;20502;-78
2024/03/12 09:10:11;;;;;;;2.67;0.80;;;;;;;;;;4971966;28;20082;-79
2024/03/12 09:12:38;;;;;;;1.85;0.93;;;;;;;;;;4971703;28;20515;-79
2024/03/12 09:15:08;;;;;;;2.08;0.80;;;;;;;;;;4948433;28;20073;-78
2024/03/12 09:17:38;;;;;;;2.67;1.45;;;;;;;;;;4971560;28;20138;-78
2024/03/12 09:20:11;;;;;;;1.45;0.88;;;;;;;;;;4971805;28;20058;-79
2024/03/12 09:22:38;;;;;;;1.08;0.98;;;;;;;;;;4972035;28;20130;-79
2024/03/12 09:25:06;;;;;;;1.63;1.13;;;;;;;;;;4970076;28;20046;-78
2024/03/12 09:27:32;;;;;;;1.25;0.70;;;;;;;;;;4971954;28;20061;-79
2024/03/12 09:30:00;;;;;;;0.80;0.73;;;;;;;;;;4953464;28;20454;-79
2024/03/12 09:32:28;;;;;;;3.72;1.02;;;;;;;;;;4955738;28;20093;-79
2024/03/12 09:34:54;;;;;;;2.13;1.10;;;;;;;;;;4971588;28;20055;-79
2024/03/12 09:37:21;;;;;;;3.72;1.10;;;;;;;;;;4955535;28;20050;-79
2024/03/12 09:39:51;;;;;;;2.40;1.05;;;;;;;;;;4955498;28;20113;-79
2024/03/12 09:42:18;;;;;;;4.85;1.90;;;;;;;;;;4955770;28;20461;-79
2024/03/12 09:44:45;;;;;;;3.78;1.83;;;;;;;;;;4951626;28;20046;-79
2024/03/12 09:47:12;;;;;;;4.45;2.00;;;;;;;;;;4971532;28;20106;-78
2024/03/12 09:49:40;;;;;;;3.35;1.90;;;;;;;;;;4971573;28;20132;-79
2024/03/12 09:52:07;;;;;;;4.32;1.85;;;;;;;;;;4955006;28;20067;-79
2024/03/12 09:54:34;;;;;;;2.97;2.38;;;;;;;;;;4955356;28;20058;-79
2024/03/12 09:57:04;;;;;;;5.75;2.15;;;;;;;;;;4955450;28;20050;-79
2024/03/12 09:59:31;;;;;;;2.72;1.88;;;;;;;;;;4971453;28;20058;-78
2024/03/12 10:02:03;;;;;;;5.10;2.00;;;;;;;;;;4955925;28;20057;-79
2024/03/12 10:04:32;;;;;;;2.50;1.73;;;;;;;;;;4971226;28;20047;-79
2024/03/12 10:06:59;;;;;;;2.90;1.77;;;;;;;;;;4971110;28;20592;-78
2024/03/12 10:09:28;;;;;;;3.60;1.95;;;;;;;;;;4955302;28;20054;-79
2024/03/12 10:11:55;;;;;;;3.95;2.17;;;;;;;;;;4951261;28;20066;-78
2024/03/12 10:14:25;;;;;;;4.05;1.95;;;;;;;;;;4955120;28;20131;-79
2024/03/12 10:16:52;;;;;;;3.63;2.30;;;;;;;;;;4970884;28;20065;-79
2024/03/12 10:19:19;;;;;;;4.60;2.08;;;;;;;;;;4971316;28;20113;-78
2024/03/12 10:21:48;;;;;;;7.28;2.47;;;;;;;;;;4954620;28;20055;-79
2024/03/12 10:24:21;;;;;;;3.85;2.38;;;;;;;;;;4970942;28;20416;-78
2024/03/12 10:26:49;;;;;;;6.90;2.60;;;;;;;;;;4949754;28;20097;-79
2024/03/12 10:29:18;;;;;;;3.35;2.00;;;;;;;;;;4954993;28;20062;-78
2024/03/12 10:31:45;;;;;;;2.45;1.95;;;;;;;;;;4955212;28;20490;-79
2024/03/12 10:34:19;;;;;;;3.42;1.95;;;;;;;;;;4970578;28;20134;-79
2024/03/12 10:36:49;;;;;;;3.22;1.77;;;;;;;;;;4970664;28;20134;-79
2024/03/12 10:39:27;;;;;;;5.82;2.70;;;;;;;;;;4975860;28;20421;-78
2024/03/12 10:41:55;;;;;;;3.05;1.73;;;;;;;;;;4952578;28;20054;-78
2024/03/12 10:44:21;;;;;;;5.70;1.65;;;;;;;;;;4954950;28;20050;-79
2024/03/12 10:46:48;;;;;;;3.13;1.80;;;;;;;;;;4954551;28;20133;-79
2024/03/12 10:49:17;;;;;;;2.35;1.60;;;;;;;;;;4970735;28;20061;-78
2024/03/12 10:51:44;;;;;;;3.50;1.85;;;;;;;;;;4954807;28;20082;-78
2024/03/12 10:54:13;;;;;;;3.63;1.80;;;;;;;;;;4953796;28;20517;-79
2024/03/12 10:56:41;;;;;;;3.35;1.70;;;;;;;;;;4954800;28;20062;-77
2024/03/12 10:59:09;;;;;;;3.47;1.83;;;;;;;;;;4964021;28;20057;-79
2024/03/12 11:01:36;;;;;;;4.03;2.25;;;;;;;;;;4959462;28;20055;-78
2024/03/12 11:04:03;;;;;;;3.15;1.92;;;;;;;;;;4969915;28;20441;-79
2024/03/12 11:06:30;;;;;;;6.45;2.00;;;;;;;;;;4958335;28;20414;-78
2024/03/12 11:08:59;;;;;;;4.07;2.17;;;;;;;;;;4950721;28;20133;-79
2024/03/12 11:11:28;;;;;;;3.47;1.50;;;;;;;;;;4958732;28;20056;-78
2024/03/12 11:13:56;;;;;;;2.08;1.48;;;;;;;;;;4975111;28;20090;-78
2024/03/12 11:16:25;;;;;;;3.47;1.83;;;;;;;;;;4960131;28;20054;-77
2024/03/12 11:18:52;;;;;;;2.38;1.90;;;;;;;;;;4959446;28;20089;-78
2024/03/12 11:21:23;;;;;;;1.80;1.35;;;;;;;;;;4982771;28;20228;-78
2024/03/12 11:23:52;;;;;;;1.70;1.20;;;;;;;;;;4958820;28;20110;-78
2024/03/12 11:26:19;;;;;;;1.42;1.13;;;;;;;;;;4958956;28;20070;-78
2024/03/12 11:28:47;;;;;;;1.80;1.23;;;;;;;;;;4958189;28;20086;-79
2024/03/12 11:31:14;;;;;;;3.85;1.10;;;;;;;;;;4958045;28;20137;-78
2024/03/12 11:33:49;;;;;;;2.75;1.48;;;;;;;;;;4973906;28;20448;-78
2024/03/12 11:36:21;;;;;;;3.28;1.83;;;;;;;;;;4958656;28;20080;-78
2024/03/12 11:38:49;;;;;;;2.33;1.50;;;;;;;;;;4958012;28;20078;-78
2024/03/12 11:41:16;;;;;;;2.63;1.83;;;;;;;;;;4957881;28;20082;-78
2024/03/12 11:43:43;;;;;;;2.50;1.88;;;;;;;;;;4957736;28;20082;-78
2024/03/12 11:46:10;;;;;;;3.53;1.63;;;;;;;;;;4973940;28;20491;-79
2024/03/12 11:48:37;;;;;;;4.55;2.22;;;;;;;;;;4957764;28;20493;-78
2024/03/12 11:51:04;;;;;;;3.78;1.63;;;;;;;;;;4956669;28;20134;-79
2024/03/12 11:53:38;;;;;;;5.30;3.00;;;;;;;;;;4973993;28;20332;-79
2024/03/12 11:56:11;;;;;;;3.55;1.90;;;;;;;;;;4958503;28;20097;-79
2024/03/12 11:58:40;;;;;;;3.58;2.03;;;;;;;;;;4973718;28;20504;-79
2024/03/12 12:01:09;;;;;;;3.70;2.22;;;;;;;;;;4973119;28;20094;-79
2024/03/12 12:03:38;;;;;;;3.10;1.75;;;;;;;;;;4957665;28;20105;-79
2024/03/12 12:06:06;;;;;;;3.75;1.98;;;;;;;;;;4973210;28;20115;-79
2024/03/12 12:08:33;;;;;;;3.15;1.85;;;;;;;;;;4974162;28;20054;-79
2024/03/12 12:11:16;;;;;;;2.30;1.20;;;;;;;;;;4973477;28;20065;-79
2024/03/12 12:13:46;;;;;;;2.15;1.33;;;;;;;;;;4957233;28;20145;-78
2024/03/12 12:16:16;;;;;;;2.63;1.40;;;;;;;;;;4968559;28;20286;-79
2024/03/12 12:18:44;;;;;;;2.45;1.95;;;;;;;;;;4971184;28;20093;-80
2024/03/12 12:21:11;;;;;;;4.03;2.28;;;;;;;;;;4971660;28;20057;-79
2024/03/12 12:23:38;;;;;;;7.20;3.15;;;;;;;;;;4957292;28;20133;-78
2024/03/12 12:26:05;;;;;;;5.22;3.22;;;;;;;;;;4956025;28;20059;-79
2024/03/12 12:28:35;;;;;;;8.10;4.90;;;;;;;;;;4956622;28;20054;-79
2024/03/12 12:31:02;;;;;;;13.23;6.93;;;;;;;;;;4970126;28;20689;-79
2024/03/12 12:33:29;;;;;;;13.85;7.28;;;;;;;;;;4972824;28;20443;-79
2024/03/12 12:35:58;;;;;;;14.50;8.43;;;;;;;;;;4956724;28;20051;-79
2024/03/12 12:38:25;;;;;;;15.38;8.80;;;;;;;;;;4959188;28;20604;-79
2024/03/12 12:40:53;;;;;;;13.30;8.50;;;;;;;;;;4965203;28;20055;-80
2024/03/12 12:43:20;;;;;;;16.20;8.10;;;;;;;;;;4968966;28;20579;-79
2024/03/12 12:45:48;;;;;;;14.75;7.57;;;;;;;;;;4977197;28;20126;-80
2024/03/12 12:48:15;;;;;;;10.20;5.93;;;;;;;;;;4992032;28;20058;-80
2024/03/12 12:50:43;;;;;;;10.57;6.05;;;;;;;;;;4959904;28;20055;-78
2024/03/12 12:53:09;;;;;;;11.45;6.85;;;;;;;;;;4970562;28;20062;-79
2024/03/12 12:55:39;;;;;;;13.13;6.82;;;;;;;;;;4984314;28;20464;-79
2024/03/12 12:58:10;;;;;;;12.02;7.45;;;;;;;;;;4962180;28;20247;-79
2024/03/12 13:00:36;;;;;;;14.68;7.68;;;;;;;;;;4974145;28;20110;-79
2024/03/12 13:03:11;;;;;;;12.15;7.18;;;;;;;;;;4960894;28;20046;-79
2024/03/12 13:05:41;;;;;;;13.25;7.50;;;;;;;;;;4962293;28;20054;-79
2024/03/12 13:08:18;;;;;;;12.02;6.68;;;;;;;;;;4962239;28;20125;-80
2024/03/12 13:10:53;;;;;;;13.65;7.68;;;;;;;;;;4962978;28;20579;-80
2024/03/12 13:13:20;;;;;;;14.60;8.15;;;;;;;;;;4957256;28;20066;-80
2024/03/12 13:15:47;;;;;;;15.38;8.00;;;;;;;;;;4978781;28;20524;-80
2024/03/12 13:18:14;;;;;;;13.05;7.43;;;;;;;;;;4961747;28;20050;-80
2024/03/12 13:20:42;;;;;;;9.93;6.22;;;;;;;;;;4979407;28;20055;-80
2024/03/12 13:23:10;;;;;;;10.75;6.15;;;;;;;;;;4977657;28;20047;-80
2024/03/12 13:25:37;;;;;;;10.80;6.40;;;;;;;;;;4977544;28;20090;-80
2024/03/12 13:28:04;;;;;;;13.18;6.25;;;;;;;;;;4960644;28;20047;-80
2024/03/12 13:30:32;;;;;;;13.52;7.55;;;;;;;;;;4962242;28;20074;-80
2024/03/12 13:33:00;;;;;;;11.23;6.53;;;;;;;;;;4976721;28;20059;-80
2024/03/12 13:35:27;;;;;;;16.35;8.73;;;;;;;;;;4967785;28;20154;-80
2024/03/12 13:37:54;;;;;;;15.60;8.52;;;;;;;;;;4963885;28;20156;-80
2024/03/12 13:40:22;;;;;;;13.32;8.27;;;;;;;;;;4976360;28;20055;-80
2024/03/12 13:42:50;;;;;;;15.48;8.60;;;;;;;;;;4976455;28;20086;-79
2024/03/12 13:45:18;;;;;;;15.75;9.45;;;;;;;;;;4961216;28;20046;-81
2024/03/12 13:47:44;;;;;;;15.52;8.63;;;;;;;;;;4977033;28;20121;-80
2024/03/12 13:50:11;;;;;;;13.38;8.32;;;;;;;;;;4977032;28;20046;-80
2024/03/12 13:52:38;;;;;;;15.05;8.20;;;;;;;;;;4960517;28;20113;-80
2024/03/12 13:55:07;;;;;;;15.32;8.23;;;;;;;;;;4960296;28;20062;-80
2024/03/12 13:57:34;;;;;;;13.93;8.32;;;;;;;;;;4977491;28;20054;-80
2024/03/12 14:00:08;;;;;;;16.02;8.68;;;;;;;;;;4960724;28;20058;-80
2024/03/12 14:02:35;;;;;;;16.73;7.90;;;;;;;;;;4977359;28;20069;-80
2024/03/12 14:05:02;;;;;;;16.63;9.30;;;;;;;;;;4961117;28;20051;-80
2024/03/12 14:07:32;;;;;;;17.95;8.98;;;;;;;;;;4961290;28;20046;-80
2024/03/12 14:09:59;;;;;;;13.05;8.93;;;;;;;;;;4976279;28;20051;-80
2024/03/12 14:12:26;;;;;;;17.05;9.50;;;;;;;;;;4997953;28;20078;-80
2024/03/12 14:14:52;;;;;;;15.40;8.88;;;;;;;;;;4960373;28;20062;-79
2024/03/12 14:17:20;;;;;;;17.67;9.93;;;;;;;;;;4976031;28;20556;-82
2024/03/12 14:19:46;;;;;;;16.52;9.52;;;;;;;;;;4961837;28;20063;-79
2024/03/12 14:22:13;;;;;;;15.10;9.23;;;;;;;;;;4974570;28;20480;-80
2024/03/12 14:24:40;;;;;;;16.95;9.63;;;;;;;;;;4960899;28;20061;-80
2024/03/12 14:27:07;;;;;;;16.63;9.38;;;;;;;;;;4977185;28;20469;-80
2024/03/12 14:29:33;;;;;;;16.95;10.48;;;;;;;;;;4978065;28;20552;-79
2024/03/12 14:32:00;;;;;;;19.45;10.52;;;;;;;;;;4979973;28;20090;-79
2024/03/12 14:34:28;;;;;;;19.50;10.27;;;;;;;;;;4967770;28;20078;-81
2024/03/12 14:36:55;;;;;;;19.85;10.98;;;;;;;;;;4961587;28;20113;-79
2024/03/12 14:39:23;;;;;;;16.75;9.40;;;;;;;;;;4977730;28;20058;-79
2024/03/12 14:41:50;;;;;;;11.57;7.30;;;;;;;;;;4960922;28;20388;-79
2024/03/12 14:44:17;;;;;;;15.18;8.00;;;;;;;;;;4976565;28;20054;-79
2024/03/12 14:46:47;;;;;;;14.75;7.95;;;;;;;;;;4977053;28;20079;-79
2024/03/12 14:49:13;;;;;;;10.95;6.45;;;;;;;;;;4964883;28;20115;-79
2024/03/12 14:51:41;;;;;;;12.75;6.38;;;;;;;;;;4975541;28;20090;-79
2024/03/12 14:54:08;;;;;;;14.45;8.10;;;;;;;;;;4960061;28;20066;-79